Time;durP1;ratioP1;P1;durP2;ratioP2;P2;SDS_P1;SDS_P2;PMS_P1;PMS_P2;Temp;Humidity;BMP_temperature;BMP_pressure;BME280_temperature;BME280_humidity;BME280_pressure;Samples;Min_cycle;Max_cycle;Signal;HPM_P1;HPM_P2
2023/08/16 00:01:14;;;;;;;92.32;87.82;;;;;;;17.36;100.00;93207.78;5067604;28;20080;-74
2023/08/16 00:03:41;;;;;;;99.32;94.28;;;;;;;17.34;100.00;93209.88;5068513;28;20121;-74
2023/08/16 00:06:11;;;;;;;80.07;75.82;;;;;;;17.35;100.00;93211.44;5064129;28;20052;-74
2023/08/16 00:08:38;;;;;;;93.32;88.72;;;;;;;17.35;100.00;93205.44;5068573;28;20056;-74
2023/08/16 00:11:05;;;;;;;82.05;77.50;;;;;;;17.31;100.00;93194.03;5066172;28;20048;-74
2023/08/16 00:13:34;;;;;;;112.03;106.60;;;;;;;17.30;100.00;93201.00;5067961;28;20048;-74
2023/08/16 00:16:01;;;;;;;80.18;75.97;;;;;;;17.25;100.00;93197.63;5065208;28;20044;-74
2023/08/16 00:18:28;;;;;;;113.95;108.40;;;;;;;17.16;100.00;93198.06;5066637;28;20041;-74
2023/08/16 00:20:55;;;;;;;112.25;106.78;;;;;;;17.06;100.00;93198.00;5067042;28;20037;-74
2023/08/16 00:23:22;;;;;;;137.57;131.00;;;;;;;17.02;100.00;93191.72;5065327;28;20436;-74
2023/08/16 00:25:49;;;;;;;117.38;111.65;;;;;;;17.02;100.00;93200.31;5066327;28;20041;-74
2023/08/16 00:28:15;;;;;;;88.70;84.15;;;;;;;17.07;100.00;93207.34;5065970;28;20102;-74
2023/08/16 00:30:43;;;;;;;104.53;99.32;;;;;;;17.08;100.00;93203.75;5063385;28;20037;-74
2023/08/16 00:33:10;;;;;;;101.57;96.32;;;;;;;17.09;100.00;93202.72;5062121;28;20094;-74
2023/08/16 00:35:37;;;;;;;107.40;102.32;;;;;;;17.05;100.00;93204.25;5067628;28;20048;-74
2023/08/16 00:38:04;;;;;;;102.53;97.53;;;;;;;17.07;100.00;93205.56;5067391;28;20048;-74
2023/08/16 00:40:30;;;;;;;119.85;114.05;;;;;;;17.10;100.00;93209.47;5066341;28;20052;-74
2023/08/16 00:42:57;;;;;;;117.25;111.47;;;;;;;17.02;100.00;93210.69;5066062;28;20048;-74
2023/08/16 00:45:24;;;;;;;105.30;100.15;;;;;;;17.01;100.00;93214.31;5064409;28;20090;-74
2023/08/16 00:47:52;;;;;;;84.45;80.13;;;;;;;16.92;100.00;93214.00;5066967;28;20044;-74
2023/08/16 00:50:21;;;;;;;126.00;119.50;;;;;;;16.96;100.00;93203.91;5067604;28;20113;-74
2023/08/16 00:52:48;;;;;;;103.90;98.85;;;;;;;16.94;100.00;93211.91;5064683;28;20043;-74
2023/08/16 00:55:16;;;;;;;138.63;132.10;;;;;;;16.91;100.00;93214.25;5068030;28;20819;-74
2023/08/16 00:57:43;;;;;;;138.95;132.57;;;;;;;16.92;100.00;93214.00;5062821;28;20137;-74
2023/08/16 01:00:11;;;;;;;138.15;131.75;;;;;;;16.92;100.00;93213.19;5067040;28;20413;-74
2023/08/16 01:02:37;;;;;;;104.32;99.20;;;;;;;16.91;100.00;93207.25;5063504;28;20084;-74
2023/08/16 01:05:07;;;;;;;120.85;114.90;;;;;;;16.79;100.00;93188.47;5064851;28;20052;-74
2023/08/16 01:07:33;;;;;;;143.32;136.63;;;;;;;16.91;100.00;93204.66;5066288;28;20056;-74
2023/08/16 01:10:00;;;;;;;133.57;127.20;;;;;;;16.90;100.00;93194.53;5067007;28;20037;-74
2023/08/16 01:12:35;;;;;;;97.00;92.18;;;;;;;16.85;100.00;93178.91;5064086;28;20184;-74
2023/08/16 01:15:08;;;;;;;99.22;94.25;;;;;;;16.93;100.00;93196.59;5067189;28;20052;-74
2023/08/16 01:17:35;;;;;;;101.50;96.55;;;;;;;16.93;100.00;93197.38;5064108;28;20634;-74
2023/08/16 01:20:07;;;;;;;120.20;114.45;;;;;;;16.89;100.00;93200.75;5065742;28;20045;-74
2023/08/16 01:22:43;;;;;;;131.85;125.55;;;;;;;16.18;100.00;93107.38;5066435;28;20157;-74
2023/08/16 01:25:22;;;;;;;117.88;112.03;;;;;;;16.75;100.00;93205.56;5062862;28;20098;-74
2023/08/16 01:27:52;;;;;;;127.35;121.10;;;;;;;16.70;100.00;93204.50;5065830;28;20532;-74
2023/08/16 01:30:20;;;;;;;131.75;125.47;;;;;;;16.63;100.00;93197.94;5063455;28;20132;-74
2023/08/16 01:32:47;;;;;;;132.98;126.75;;;;;;;16.56;100.00;93191.16;5066521;28;20054;-74
2023/08/16 01:35:14;;;;;;;129.82;123.80;;;;;;;16.49;100.00;93177.63;5063682;28;20101;-74
2023/08/16 01:37:41;;;;;;;112.43;106.70;;;;;;;16.61;100.00;93195.59;5066003;28;20045;-74
2023/08/16 01:40:09;;;;;;;109.10;103.68;;;;;;;16.59;100.00;93191.69;5066060;28;20560;-74
2023/08/16 01:42:41;;;;;;;124.07;118.22;;;;;;;16.56;100.00;93191.16;5067490;28;20089;-74
2023/08/16 01:45:10;;;;;;;127.10;120.93;;;;;;;16.58;100.00;93195.31;5065163;28;20052;-74
2023/08/16 01:47:38;;;;;;;142.60;136.13;;;;;;;16.55;100.00;93183.63;5065687;28;20052;-74
2023/08/16 01:50:07;;;;;;;146.15;139.23;;;;;;;16.55;100.00;93189.59;5065910;28;20049;-75
2023/08/16 01:52:35;;;;;;;137.32;130.88;;;;;;;16.50;100.00;93189.56;5066980;28;20044;-74
2023/08/16 01:55:01;;;;;;;105.30;100.05;;;;;;;16.44;100.00;93195.72;5062112;28;20430;-74
2023/08/16 01:57:28;;;;;;;124.75;118.72;;;;;;;16.45;100.00;93189.50;5064941;28;20114;-74
2023/08/16 01:59:55;;;;;;;124.30;118.45;;;;;;;16.36;100.00;93180.59;5064698;28;20067;-74
2023/08/16 02:02:24;;;;;;;141.52;135.02;;;;;;;16.42;100.00;93192.59;5066376;28;20094;-75
2023/08/16 02:04:54;;;;;;;145.93;139.20;;;;;;;16.41;100.00;93186.63;5065554;28;20083;-76
2023/08/16 02:07:21;;;;;;;131.40;125.05;;;;;;;16.41;100.00;93193.63;5065041;28;20056;-75
2023/08/16 02:09:48;;;;;;;121.72;115.90;;;;;;;16.39;100.00;93193.09;5066190;28;20044;-75
2023/08/16 02:12:14;;;;;;;159.90;152.27;;;;;;;16.38;100.00;93184.53;5066138;28;20048;-75
2023/08/16 02:14:41;;;;;;;134.93;128.43;;;;;;;16.33;100.00;93187.06;5066119;28;20075;-75
2023/08/16 02:17:09;;;;;;;155.68;148.38;;;;;;;16.35;100.00;93189.41;5066628;28;20047;-75
2023/08/16 02:19:37;;;;;;;161.02;153.63;;;;;;;16.35;100.00;93192.00;5063934;28;20046;-75
2023/08/16 02:22:04;;;;;;;156.27;149.25;;;;;;;16.34;100.00;93193.81;5062891;28;20064;-75
2023/08/16 02:24:31;;;;;;;159.57;152.20;;;;;;;16.32;100.00;93195.06;5065879;28;20068;-75
2023/08/16 02:26:58;;;;;;;127.50;121.28;;;;;;;16.24;100.00;93175.59;5066635;28;20052;-75
2023/08/16 02:29:24;;;;;;;147.32;140.40;;;;;;;16.31;100.00;93194.31;5062156;28;21177;-75
2023/08/16 02:31:51;;;;;;;162.23;154.63;;;;;;;16.27;100.00;93186.25;5066231;28;20056;-74
2023/08/16 02:34:18;;;;;;;150.77;143.88;;;;;;;16.22;100.00;93181.03;5059748;28;20554;-75
2023/08/16 02:36:46;;;;;;;153.90;146.82;;;;;;;16.22;100.00;93185.41;5066557;28;20052;-75
2023/08/16 02:39:12;;;;;;;136.98;130.68;;;;;;;16.15;100.00;93186.38;5064022;28;20102;-74
2023/08/16 02:41:39;;;;;;;164.63;157.20;;;;;;;16.14;100.00;93191.81;5066740;28;20047;-74
2023/08/16 02:44:06;;;;;;;170.20;162.60;;;;;;;16.11;100.00;93192.31;5066644;28;20129;-74
2023/08/16 02:46:33;;;;;;;165.23;157.73;;;;;;;16.06;100.00;93194.84;5066441;28;20316;-74
2023/08/16 02:48:59;;;;;;;151.88;144.77;;;;;;;16.05;100.00;93190.69;5065329;28;20109;-73
2023/08/16 02:51:26;;;;;;;168.30;160.68;;;;;;;16.07;100.00;93197.22;5066195;28;20052;-74
2023/08/16 02:53:54;;;;;;;142.10;135.55;;;;;;;16.05;100.00;93196.66;5066356;28;20670;-74
2023/08/16 02:56:21;;;;;;;128.38;122.45;;;;;;;16.01;100.00;93191.19;5065377;28;20052;-75
2023/08/16 02:58:48;;;;;;;174.38;166.30;;;;;;;16.04;100.00;93189.91;5065054;28;20788;-74
2023/08/16 03:01:14;;;;;;;141.57;135.02;;;;;;;16.05;100.00;93194.06;5062292;28;20881;-76
2023/08/16 03:03:42;;;;;;;154.18;146.95;;;;;;;16.03;100.00;93191.69;5062488;28;20127;-75
2023/08/16 03:06:09;;;;;;;139.50;132.90;;;;;;;16.00;100.00;93192.22;5060490;28;20826;-75
2023/08/16 03:08:35;;;;;;;147.88;140.98;;;;;;;15.94;100.00;93193.19;5064769;28;20110;-75
2023/08/16 03:11:03;;;;;;;126.80;120.65;;;;;;;15.91;100.00;93193.63;5063440;28;20045;-75
2023/08/16 03:13:30;;;;;;;130.48;124.43;;;;;;;15.89;100.00;93193.09;5065892;28;20812;-74
2023/08/16 03:15:57;;;;;;;129.75;123.50;;;;;;;15.87;100.00;93200.31;5064347;28;20098;-75
2023/08/16 03:18:24;;;;;;;141.57;134.93;;;;;;;15.78;100.00;93187.00;5065304;28;20044;-75
2023/08/16 03:20:50;;;;;;;155.13;148.02;;;;;;;15.82;100.00;93205.44;5064864;28;20060;-75
2023/08/16 03:23:17;;;;;;;160.10;152.73;;;;;;;15.79;100.00;93206.72;5065448;28;20449;-75
2023/08/16 03:25:44;;;;;;;163.48;155.73;;;;;;;15.71;100.00;93209.72;5068900;28;20047;-76
2023/08/16 03:28:12;;;;;;;152.93;145.68;;;;;;;15.68;100.00;93211.00;5062945;28;20049;-75
2023/08/16 03:30:39;;;;;;;188.43;179.60;;;;;;;15.68;100.00;93205.81;5064795;28;20121;-76
2023/08/16 03:33:06;;;;;;;162.10;154.70;;;;;;;15.73;100.00;93205.06;5067503;28;20837;-76
2023/08/16 03:35:33;;;;;;;168.73;160.88;;;;;;;15.73;100.00;93205.88;5068677;28;20040;-76
2023/08/16 03:37:59;;;;;;;168.35;160.45;;;;;;;15.74;100.00;93202.25;5067611;28;20053;-76
2023/08/16 03:40:26;;;;;;;176.93;168.57;;;;;;;15.76;100.00;93204.59;5069745;28;20094;-76
2023/08/16 03:42:53;;;;;;;181.82;173.13;;;;;;;15.77;100.00;93201.78;5068584;28;20052;-76
2023/08/16 03:45:24;;;;;;;184.50;175.95;;;;;;;15.75;100.00;93200.47;5067892;28;20044;-76
2023/08/16 03:47:52;;;;;;;164.25;156.68;;;;;;;15.72;100.00;93209.50;5065702;28;20048;-76
2023/08/16 03:50:19;;;;;;;204.90;195.15;;;;;;;15.68;100.00;93212.78;5067526;28;20128;-76
2023/08/16 03:52:45;;;;;;;175.88;167.45;;;;;;;15.68;100.00;93208.41;5069162;28;20538;-76
2023/08/16 03:55:12;;;;;;;178.00;169.63;;;;;;;15.71;100.00;93207.13;5068921;28;20045;-76
2023/08/16 03:57:39;;;;;;;214.20;204.10;;;;;;;15.69;100.00;93204.00;5065414;28;20049;-76
2023/08/16 04:00:08;;;;;;;215.93;206.02;;;;;;;15.69;100.00;93211.78;5068222;28;20044;-75
2023/08/16 04:02:36;;;;;;;171.65;163.93;;;;;;;15.66;100.00;93207.06;5065570;28;20449;-75
2023/08/16 04:05:09;;;;;;;142.32;135.30;;;;;;;15.52;100.00;93175.59;5064674;28;20716;-75
2023/08/16 04:07:36;;;;;;;128.80;122.43;;;;;;;15.69;100.00;93202.19;5068357;28;20049;-75
2023/08/16 04:10:03;;;;;;;217.63;207.68;;;;;;;15.70;100.00;93206.34;5063505;28;20468;-75
2023/08/16 04:12:29;;;;;;;210.73;201.10;;;;;;;15.72;100.00;93211.28;5066264;28;20044;-75
2023/08/16 04:14:56;;;;;;;162.18;154.50;;;;;;;15.67;100.00;93201.66;5064507;28;20151;-75
2023/08/16 04:17:23;;;;;;;184.40;175.82;;;;;;;15.58;100.00;93190.16;5064210;28;20788;-76
2023/08/16 04:19:51;;;;;;;165.70;158.00;;;;;;;15.76;100.00;93202.81;5064137;28;20052;-75
2023/08/16 04:22:18;;;;;;;232.32;221.73;;;;;;;15.83;100.00;93218.16;5062522;28;20053;-75
2023/08/16 04:24:45;;;;;;;211.38;201.57;;;;;;;15.85;100.00;93216.13;5061721;28;20045;-75
2023/08/16 04:27:12;;;;;;;207.18;197.85;;;;;;;15.89;100.00;93213.81;5063084;28;20045;-75
2023/08/16 04:29:40;;;;;;;172.15;164.10;;;;;;;15.93;100.00;93212.34;5063963;28;20056;-76
2023/08/16 04:32:07;;;;;;;220.10;209.52;;;;;;;15.95;100.00;93218.06;5061017;28;20796;-75
2023/08/16 04:34:33;;;;;;;224.20;213.88;;;;;;;15.99;100.00;93223.53;5061830;28;20636;-76
2023/08/16 04:37:02;;;;;;;140.10;133.50;;;;;;;16.04;100.00;93215.81;5061811;28;20101;-76
2023/08/16 04:39:28;;;;;;;168.18;160.23;;;;;;;16.11;100.00;93226.75;5063400;28;20056;-75
2023/08/16 04:41:56;;;;;;;166.85;159.00;;;;;;;16.14;100.00;93217.72;5064407;28;20101;-76
2023/08/16 04:44:23;;;;;;;146.35;139.07;;;;;;;16.23;100.00;93216.28;5068139;28;20060;-75
2023/08/16 04:46:50;;;;;;;160.60;153.23;;;;;;;16.29;100.00;93223.06;5067016;28;20777;-75
2023/08/16 04:49:16;;;;;;;184.18;175.55;;;;;;;16.34;100.00;93218.97;5065618;28;20048;-75
2023/08/16 04:51:43;;;;;;;149.48;141.88;;;;;;;16.36;100.00;93222.88;5065460;28;20120;-76
2023/08/16 04:54:11;;;;;;;169.82;161.98;;;;;;;16.37;100.00;93224.44;5061913;28;20044;-75
2023/08/16 04:56:38;;;;;;;163.45;155.20;;;;;;;16.45;100.00;93228.41;5068237;28;20090;-76
2023/08/16 04:59:04;;;;;;;150.93;143.68;;;;;;;16.58;100.00;93223.84;5064014;28;20052;-77
2023/08/16 05:01:32;;;;;;;153.82;146.25;;;;;;;16.64;100.00;93225.44;5066890;28;20052;-76
2023/08/16 05:03:59;;;;;;;126.13;119.97;;;;;;;16.71;100.00;93220.81;5065368;28;20171;-75
2023/08/16 05:06:26;;;;;;;152.77;144.80;;;;;;;16.77;100.00;93211.28;5066712;28;20037;-75
2023/08/16 05:08:53;;;;;;;146.05;138.77;;;;;;;16.84;100.00;93222.22;5065562;28;20048;-75
2023/08/16 05:11:21;;;;;;;135.52;128.57;;;;;;;16.94;100.00;93224.13;5067032;28;20106;-75
2023/08/16 05:13:48;;;;;;;162.50;154.40;;;;;;;17.02;100.00;93221.06;5063076;28;20049;-75
2023/08/16 05:16:14;;;;;;;141.05;133.65;;;;;;;17.09;100.00;93213.09;5062337;28;20044;-75
2023/08/16 05:18:41;;;;;;;147.93;140.77;;;;;;;17.16;100.00;93210.25;5062935;28;20445;-74
2023/08/16 05:21:08;;;;;;;114.85;108.60;;;;;;;17.23;100.00;93216.03;5065336;28;20060;-74
2023/08/16 05:23:35;;;;;;;112.40;106.60;;;;;;;17.33;100.00;93210.13;5067477;28;20048;-75
2023/08/16 05:26:01;;;;;;;107.15;101.43;;;;;;;17.41;100.00;93208.84;5066570;28;20575;-76
2023/08/16 05:28:29;;;;;;;124.95;118.40;;;;;;;17.48;100.00;93212.78;5067493;28;20049;-75
2023/08/16 05:30:56;;;;;;;122.88;116.57;;;;;;;17.54;100.00;93200.59;5065921;28;20114;-75
2023/08/16 05:33:23;;;;;;;107.82;102.10;;;;;;;17.60;100.00;93198.81;5065852;28;20752;-75
2023/08/16 05:35:50;;;;;;;86.80;82.35;;;;;;;17.75;100.00;93201.47;5065946;28;20044;-75
2023/08/16 05:38:21;;;;;;;85.68;80.70;;;;;;;17.79;100.00;93196.56;5067560;28;20048;-76
2023/08/16 05:40:48;;;;;;;105.93;100.57;;;;;;;17.94;100.00;93203.63;5067494;28;20048;-76
2023/08/16 05:43:15;;;;;;;73.55;69.35;;;;;;;18.03;100.00;93207.28;5061841;28;20094;-76
2023/08/16 05:45:43;;;;;;;80.40;75.97;;;;;;;18.17;100.00;93206.81;5062501;28;20101;-76
2023/08/16 05:48:10;;;;;;;88.65;83.95;;;;;;;18.26;100.00;93201.91;5059276;28;20049;-76
2023/08/16 05:50:36;;;;;;;84.53;79.85;;;;;;;18.36;100.00;93201.91;5065769;28;20488;-76
2023/08/16 05:53:03;;;;;;;92.57;87.45;;;;;;;18.47;100.00;93197.50;5066112;28;20044;-76
2023/08/16 05:55:30;;;;;;;89.53;84.97;;;;;;;18.57;100.00;93199.34;5065094;28;20584;-76
2023/08/16 05:57:57;;;;;;;77.97;73.82;;;;;;;18.74;100.00;93203.50;5063739;28;20133;-76
2023/08/16 06:00:24;;;;;;;63.47;59.83;;;;;;;18.80;100.00;93205.06;5066609;28;20052;-76
2023/08/16 06:02:53;;;;;;;65.53;61.83;;;;;;;18.86;100.00;93198.03;5066898;28;20044;-76
2023/08/16 06:05:20;;;;;;;79.05;74.35;;;;;;;18.98;100.00;93205.56;5064204;28;20076;-76
2023/08/16 06:07:47;;;;;;;67.60;63.83;;;;;;;19.06;100.00;93202.44;5066280;28;20110;-75
2023/08/16 06:10:16;;;;;;;78.38;73.97;;;;;;;19.06;100.00;93185.03;5060597;28;20146;-75
2023/08/16 06:12:42;;;;;;;50.47;47.30;;;;;;;19.32;100.00;93184.19;5063564;28;20915;-76
2023/08/16 06:15:12;;;;;;;54.30;51.08;;;;;;;19.55;100.00;93200.25;5063894;28;20056;-75
2023/08/16 06:17:38;;;;;;;47.15;44.15;;;;;;;19.69;100.00;93196.06;5064916;28;20059;-75
2023/08/16 06:20:09;;;;;;;46.45;43.50;;;;;;;19.90;100.00;93201.94;5065054;28;20052;-75
2023/08/16 06:22:37;;;;;;;43.78;41.00;;;;;;;20.14;100.00;93200.56;5063168;28;20055;-75
2023/08/16 06:25:04;;;;;;;34.63;32.45;;;;;;;20.39;100.00;93199.63;5062548;28;20053;-75
2023/08/16 06:27:31;;;;;;;28.60;26.50;;;;;;;20.58;100.00;93196.38;5065614;28;20461;-75
2023/08/16 06:29:58;;;;;;;22.88;21.23;;;;;;;20.81;100.00;93194.09;5063740;28;20048;-75
2023/08/16 06:32:24;;;;;;;22.75;21.10;;;;;;;21.05;100.00;93194.19;5065789;28;20106;-75
2023/08/16 06:34:51;;;;;;;26.23;24.38;;;;;;;21.19;100.00;93198.75;5066205;28;20534;-76
2023/08/16 06:37:19;;;;;;;22.25;19.92;;;;;;;21.33;100.00;93197.06;5063164;28;20090;-75
2023/08/16 06:39:46;;;;;;;24.52;22.88;;;;;;;21.55;100.00;93197.59;5061305;28;20056;-75
2023/08/16 06:42:13;;;;;;;20.80;19.30;;;;;;;21.51;100.00;93186.16;5059281;28;20048;-76
2023/08/16 06:44:40;;;;;;;23.48;21.48;;;;;;;21.46;100.00;93179.16;5062320;28;20137;-75
2023/08/16 06:47:07;;;;;;;23.92;22.13;;;;;;;21.72;100.00;93192.72;5064430;28;20560;-75
2023/08/16 06:49:34;;;;;;;22.85;21.02;;;;;;;21.78;100.00;93184.81;5064362;28;20615;-75
2023/08/16 06:52:00;;;;;;;21.25;19.70;;;;;;;21.99;100.00;93191.34;5063848;28;20102;-75
2023/08/16 06:54:28;;;;;;;19.02;17.70;;;;;;;22.07;100.00;93176.09;5062975;28;20611;-75
2023/08/16 06:56:57;;;;;;;20.13;18.55;;;;;;;22.36;99.17;93185.66;5065310;28;20611;-75
2023/08/16 06:59:24;;;;;;;15.20;13.88;;;;;;;22.32;100.00;93182.81;5064143;28;20098;-76
2023/08/16 07:01:51;;;;;;;17.60;16.08;;;;;;;22.50;98.14;93183.84;5070136;28;20048;-75
2023/08/16 07:04:18;;;;;;;14.93;12.18;;;;;;;22.61;96.64;93187.13;5067744;28;20093;-75
2023/08/16 07:06:44;;;;;;;16.52;12.30;;;;;;;22.89;95.73;93176.75;5069911;28;20049;-75
2023/08/16 07:09:11;;;;;;;13.23;11.93;;;;;;;23.17;95.64;93168.13;5066288;28;20048;-75
2023/08/16 07:11:39;;;;;;;14.45;12.93;;;;;;;23.57;95.02;93173.72;5068623;28;20052;-75
2023/08/16 07:14:06;;;;;;;13.27;11.50;;;;;;;23.89;93.43;93173.88;5065550;28;20094;-75
2023/08/16 07:16:33;;;;;;;17.02;12.50;;;;;;;24.21;92.79;93174.78;5067911;28;20118;-75
2023/08/16 07:19:00;;;;;;;12.68;10.27;;;;;;;24.44;89.64;93169.56;5066074;28;20099;-75
2023/08/16 07:21:27;;;;;;;12.73;10.90;;;;;;;24.67;87.82;93166.97;5068417;28;20114;-75
2023/08/16 07:23:54;;;;;;;15.32;10.95;;;;;;;25.02;87.83;93174.28;5066062;28;20040;-74
2023/08/16 07:26:20;;;;;;;15.57;10.50;;;;;;;25.08;85.11;93163.34;5067315;28;20041;-74
2023/08/16 07:28:48;;;;;;;13.60;11.38;;;;;;;25.37;84.29;93169.19;5067645;28;20480;-74
2023/08/16 07:31:15;;;;;;;13.35;10.02;;;;;;;25.66;84.10;93154.00;5066274;28;20647;-74
2023/08/16 07:33:42;;;;;;;11.77;10.45;;;;;;;25.99;81.59;93166.75;5065600;28;20044;-74
2023/08/16 07:36:09;;;;;;;13.85;10.13;;;;;;;26.27;81.11;93163.84;5067411;28;20457;-74
2023/08/16 07:38:35;;;;;;;12.02;10.23;;;;;;;26.42;79.20;93159.97;5065323;28;20456;-74
2023/08/16 07:41:02;;;;;;;10.25;9.38;;;;;;;26.64;79.89;93159.03;5067642;28;20102;-74
2023/08/16 07:43:29;;;;;;;8.65;7.70;;;;;;;26.54;75.29;93168.03;5066325;28;20052;-74
2023/08/16 07:45:57;;;;;;;8.82;7.93;;;;;;;26.92;76.45;93163.97;5068204;28;20135;-74
2023/08/16 07:48:24;;;;;;;13.77;8.82;;;;;;;27.19;76.39;93159.38;5068950;28;20090;-74
2023/08/16 07:50:51;;;;;;;10.27;8.43;;;;;;;27.21;74.13;93159.84;5063578;28;20141;-73
2023/08/16 07:53:18;;;;;;;9.40;8.50;;;;;;;26.65;76.48;93151.88;5066644;28;20045;-74
2023/08/16 07:55:45;;;;;;;9.02;8.23;;;;;;;25.74;77.52;93153.25;5065995;28;20053;-74
2023/08/16 07:58:13;;;;;;;11.77;8.27;;;;;;;25.64;78.38;93161.41;5068474;28;20048;-76
2023/08/16 08:00:40;;;;;;;11.73;9.02;;;;;;;25.36;79.78;93167.63;5065308;28;20045;-74
2023/08/16 08:03:09;;;;;;;9.70;8.20;;;;;;;25.56;80.11;93166.34;5064197;28;20138;-76
2023/08/16 08:05:36;;;;;;;9.00;8.10;;;;;;;25.89;78.66;93160.69;5065457;28;20539;-74
2023/08/16 08:08:04;;;;;;;9.25;8.35;;;;;;;25.95;76.86;93173.69;5065171;28;20325;-74
2023/08/16 08:10:31;;;;;;;9.32;8.43;;;;;;;26.20;76.35;93171.41;5062698;28;20151;-74
2023/08/16 08:12:59;;;;;;;9.75;8.30;;;;;;;25.27;77.96;93172.09;5062820;28;20056;-76
2023/08/16 08:15:26;;;;;;;9.95;8.95;;;;;;;25.42;79.40;93168.28;5063125;28;20048;-76
2023/08/16 08:17:52;;;;;;;9.95;9.02;;;;;;;25.59;79.37;93178.13;5064790;28;20049;-76
2023/08/16 08:20:21;;;;;;;15.10;8.55;;;;;;;25.52;75.90;93177.75;5067801;28;20049;-74
2023/08/16 08:22:47;;;;;;;9.55;8.65;;;;;;;25.82;77.87;93173.53;5066567;28;20049;-74
2023/08/16 08:25:14;;;;;;;9.55;8.65;;;;;;;25.45;75.99;93181.59;5063403;28;20986;-75
2023/08/16 08:27:41;;;;;;;9.98;9.02;;;;;;;25.77;75.95;93170.28;5068538;28;20045;-74
2023/08/16 08:30:09;;;;;;;9.57;7.85;;;;;;;25.99;74.73;93172.78;5064125;28;20563;-74
2023/08/16 08:32:36;;;;;;;8.88;7.68;;;;;;;26.10;76.96;93175.88;5062621;28;20171;-74
2023/08/16 08:35:04;;;;;;;9.57;7.95;;;;;;;26.12;74.39;93173.72;5061172;28;20117;-73
2023/08/16 08:37:32;;;;;;;9.00;8.15;;;;;;;25.97;76.63;93168.91;5062186;28;20490;-74
2023/08/16 08:39:59;;;;;;;9.50;8.65;;;;;;;25.16;77.48;93177.63;5065075;28;20510;-75
2023/08/16 08:42:28;;;;;;;10.30;9.18;;;;;;;24.98;80.01;93186.50;5060092;28;20083;-75
2023/08/16 08:44:56;;;;;;;10.20;9.02;;;;;;;25.17;79.59;93175.75;5061994;28;20171;-74
2023/08/16 08:47:24;;;;;;;10.70;9.57;;;;;;;25.51;78.86;93174.34;5063878;28;20087;-74
2023/08/16 08:49:52;;;;;;;9.48;8.63;;;;;;;25.59;76.41;93180.75;5061042;28;20049;-74
2023/08/16 08:52:20;;;;;;;11.63;7.65;;;;;;;25.92;76.93;93174.31;5064787;28;20040;-74
2023/08/16 08:54:49;;;;;;;10.60;8.45;;;;;;;26.10;75.49;93162.72;5061800;28;21377;-74
2023/08/16 08:57:16;;;;;;;10.77;8.65;;;;;;;26.23;75.47;93179.50;5066402;28;20063;-74
2023/08/16 08:59:49;;;;;;;10.23;8.25;;;;;;;26.33;75.00;93183.66;5062018;28;20128;-74
2023/08/16 09:02:17;;;;;;;8.98;8.07;;;;;;;25.91;75.34;93168.28;5061972;28;20053;-75
2023/08/16 09:04:46;;;;;;;8.27;7.57;;;;;;;26.10;75.74;93172.50;5062485;28;20048;-74
2023/08/16 09:07:14;;;;;;;9.32;8.43;;;;;;;25.61;75.91;93173.31;5055910;28;20056;-75
2023/08/16 09:09:44;;;;;;;9.82;8.88;;;;;;;25.40;76.84;93167.81;5064770;28;20417;-75
2023/08/16 09:12:13;;;;;;;9.55;8.38;;;;;;;25.30;77.25;93169.63;5062606;28;20395;-74
2023/08/16 09:14:39;;;;;;;10.73;9.63;;;;;;;25.61;76.03;93179.34;5059777;28;20048;-75
2023/08/16 09:17:06;;;;;;;9.32;8.50;;;;;;;25.67;74.26;93169.47;5062649;28;20133;-74
2023/08/16 09:19:33;;;;;;;11.23;8.60;;;;;;;26.10;73.54;93160.09;5064364;28;20086;-74
2023/08/16 09:21:59;;;;;;;11.48;8.05;;;;;;;25.77;72.57;93167.63;5063154;28;20056;-75
2023/08/16 09:24:26;;;;;;;9.02;8.05;;;;;;;26.13;73.72;93166.59;5063823;28;20111;-74
2023/08/16 09:26:53;;;;;;;8.75;7.85;;;;;;;26.60;70.12;93162.59;5065861;28;20044;-74
2023/08/16 09:29:21;;;;;;;10.07;8.38;;;;;;;26.26;70.35;93168.34;5066232;28;20048;-74
2023/08/16 09:31:48;;;;;;;9.35;8.27;;;;;;;26.33;70.62;93161.84;5063496;28;20574;-75
2023/08/16 09:34:15;;;;;;;8.77;7.80;;;;;;;26.50;70.06;93153.94;5065158;28;20496;-74
2023/08/16 09:36:43;;;;;;;8.13;7.32;;;;;;;26.61;71.31;93157.00;5064426;28;20040;-75
2023/08/16 09:39:10;;;;;;;8.43;7.63;;;;;;;27.31;69.17;93165.84;5064776;28;20113;-74
2023/08/16 09:41:38;;;;;;;9.80;7.85;;;;;;;27.37;67.83;93155.91;5066276;28;20048;-74
2023/08/16 09:44:06;;;;;;;9.75;8.35;;;;;;;27.38;65.96;93157.44;5066581;28;20049;-74
2023/08/16 09:46:35;;;;;;;8.57;7.75;;;;;;;27.80;63.73;93154.16;5063456;28;20141;-74
2023/08/16 09:49:07;;;;;;;9.18;7.70;;;;;;;27.76;65.82;93142.72;5063377;28;20052;-74
2023/08/16 09:51:34;;;;;;;8.55;7.72;;;;;;;27.83;63.85;93153.53;5063067;28;20052;-74
2023/08/16 09:54:03;;;;;;;12.77;8.93;;;;;;;28.13;65.79;93145.53;5064828;28;20072;-74
2023/08/16 09:56:33;;;;;;;10.05;8.20;;;;;;;28.44;62.47;93159.47;5063549;28;20040;-74
2023/08/16 09:59:00;;;;;;;9.68;8.70;;;;;;;28.48;63.37;93149.81;5063163;28;20056;-74
2023/08/16 10:01:27;;;;;;;9.80;8.88;;;;;;;28.27;63.53;93153.22;5063588;28;20132;-74
2023/08/16 10:03:56;;;;;;;9.40;8.60;;;;;;;28.73;63.45;93158.59;5062310;28;20117;-75
2023/08/16 10:06:24;;;;;;;9.30;8.30;;;;;;;28.47;63.04;93159.59;5063682;28;20396;-74
2023/08/16 10:08:53;;;;;;;10.15;7.93;;;;;;;28.03;62.69;93162.56;5064190;28;20132;-74
2023/08/16 10:11:19;;;;;;;9.63;8.40;;;;;;;28.33;62.93;93162.50;5060970;28;20048;-74
2023/08/16 10:13:47;;;;;;;9.73;8.82;;;;;;;27.66;65.92;93154.38;5062082;28;20090;-74
2023/08/16 10:16:16;;;;;;;9.05;8.13;;;;;;;28.06;65.56;93151.34;5063908;28;20044;-73
2023/08/16 10:18:43;;;;;;;9.85;8.95;;;;;;;27.92;64.71;93153.47;5063332;28;20052;-74
2023/08/16 10:21:15;;;;;;;8.63;7.82;;;;;;;27.40;65.52;93147.38;5062024;28;20056;-74
2023/08/16 10:23:42;;;;;;;9.05;8.25;;;;;;;27.49;64.21;93150.72;5063300;28;20565;-74
2023/08/16 10:26:14;;;;;;;9.98;8.27;;;;;;;27.86;63.63;93152.91;5062633;28;20048;-74
2023/08/16 10:28:43;;;;;;;10.07;8.43;;;;;;;28.41;62.75;93145.03;5064145;28;20056;-74
2023/08/16 10:31:13;;;;;;;9.73;8.13;;;;;;;28.58;60.32;93153.91;5064675;28;20078;-74
2023/08/16 10:33:44;;;;;;;8.98;7.85;;;;;;;28.33;59.42;93153.81;5064092;28;20494;-74
2023/08/16 10:36:12;;;;;;;8.52;7.75;;;;;;;28.66;59.88;93147.78;5056062;28;20052;-74
2023/08/16 10:38:41;;;;;;;9.27;8.32;;;;;;;28.21;61.13;93143.94;5064099;28;20494;-74
2023/08/16 10:41:13;;;;;;;9.63;8.73;;;;;;;28.18;60.27;93144.59;5066261;28;20086;-74
2023/08/16 10:43:45;;;;;;;10.00;7.57;;;;;;;28.07;58.57;93144.97;5061881;28;20163;-74
2023/08/16 10:46:12;;;;;;;8.77;7.90;;;;;;;27.92;60.60;93145.53;5062228;28;20143;-74
2023/08/16 10:48:39;;;;;;;9.10;7.57;;;;;;;28.31;60.48;93140.94;5059269;28;20049;-74
2023/08/16 10:51:08;;;;;;;9.30;8.38;;;;;;;28.14;60.97;93139.94;5062527;28;20499;-74
2023/08/16 10:53:37;;;;;;;11.50;9.20;;;;;;;28.66;59.47;93134.56;5062557;28;20410;-74
2023/08/16 10:56:08;;;;;;;11.52;8.30;;;;;;;28.77;55.28;93119.84;5062512;28;20074;-74
2023/08/16 10:58:47;;;;;;;8.15;7.38;;;;;;;29.11;56.64;93140.97;5062465;28;20048;-74
2023/08/16 11:01:13;;;;;;;8.48;7.68;;;;;;;29.26;57.82;93136.13;5061964;28;20593;-74
2023/08/16 11:03:43;;;;;;;11.65;7.57;;;;;;;28.71;53.16;93123.78;5062940;28;20114;-74
2023/08/16 11:06:12;;;;;;;7.35;6.65;;;;;;;28.55;53.67;93136.84;5058553;28;20084;-77
2023/08/16 11:08:44;;;;;;;8.07;7.15;;;;;;;29.07;54.55;93142.75;5061848;28;20159;-80
2023/08/16 11:11:12;;;;;;;8.93;7.85;;;;;;;29.38;55.62;93132.72;5060238;28;20114;-76